createdAt,value
2022-09-13T00:02:44.288Z,17.23
2022-09-13T00:05:45.915Z,17.42
2022-09-13T00:08:47.448Z,17.36
2022-09-13T00:11:48.943Z,17.29
2022-09-13T00:14:50.384Z,17.08
2022-09-13T00:17:51.887Z,16.94
2022-09-13T00:21:07.620Z,16.79
2022-09-13T00:24:09.070Z,16.96
2022-09-13T00:27:11.145Z,16.96
2022-09-13T00:30:12.733Z,16.97
2022-09-13T00:33:14.145Z,17.01
2022-09-13T00:36:15.977Z,16.92
2022-09-13T00:39:17.389Z,16.84
2022-09-13T00:42:25.276Z,16.65
2022-09-13T00:45:26.847Z,16.59
2022-09-13T00:48:28.328Z,16.54
2022-09-13T00:51:30.144Z,16.59
2022-09-13T00:54:40.377Z,16.79
2022-09-13T00:57:42.578Z,16.98
2022-09-13T01:00:45.794Z,17.30
2022-09-13T01:03:48.546Z,17.65
2022-09-13T01:06:54.397Z,17.34
2022-09-13T01:09:55.972Z,17.88
2022-09-13T01:13:05.303Z,17.96
2022-09-13T01:16:06.919Z,18.10
2022-09-13T01:19:09.008Z,18.17
2022-09-13T01:22:28.973Z,18.19
2022-09-13T01:25:59.568Z,18.00
2022-09-13T01:29:51.958Z,18.17
2022-09-13T01:33:16.765Z,18.23
2022-09-13T01:36:35.336Z,18.18
2022-09-13T01:40:03.386Z,18.09
2022-09-13T01:43:17.160Z,18.08
2022-09-13T01:46:26.500Z,18.14
2022-09-13T01:49:41.624Z,17.95
2022-09-13T01:53:05.529Z,17.90
2022-09-13T01:56:19.057Z,17.67
2022-09-13T01:59:32.630Z,17.53
2022-09-13T02:02:52.109Z,17.14
2022-09-13T02:06:04.449Z,17.12
2022-09-13T02:09:17.542Z,16.89
2022-09-13T02:12:25.157Z,16.69
2022-09-13T02:15:38.244Z,16.45
2022-09-13T02:18:43.441Z,16.54
2022-09-13T02:21:50.688Z,16.73
2022-09-13T02:24:57.680Z,16.56
2022-09-13T02:28:03.976Z,16.67
2022-09-13T02:31:09.056Z,16.69
2022-09-13T02:34:18.636Z,16.59
2022-09-13T02:37:20.537Z,16.69
2022-09-13T02:40:27.492Z,16.75
2022-09-13T02:43:41.782Z,16.62
2022-09-13T02:47:13.992Z,16.57
2022-09-13T02:50:15.328Z,16.29
2022-09-13T02:53:19.811Z,16.20
2022-09-13T02:56:35.296Z,16.20
2022-09-13T02:59:36.809Z,16.09
2022-09-13T03:02:41.740Z,16.20
2022-09-13T03:05:43.697Z,16.14
2022-09-13T03:08:45.189Z,16.36
2022-09-13T03:12:01.721Z,16.20
2022-09-13T03:15:12.261Z,16.18
2022-09-13T03:18:47.761Z,16.13
2022-09-13T03:22:11.104Z,16.21
2022-09-13T03:25:30.788Z,16.17
2022-09-13T03:28:56.416Z,15.94
2022-09-13T03:32:10.693Z,15.70
2022-09-13T03:35:30.841Z,15.96
2022-09-13T03:38:39.828Z,15.97
2022-09-13T03:41:46.540Z,16.07
2022-09-13T03:44:50.526Z,15.90
2022-09-13T03:47:52.450Z,15.86
2022-09-13T03:50:54.301Z,15.79
2022-09-13T03:54:02.211Z,15.90
2022-09-13T03:57:14.251Z,15.99
2022-09-13T04:00:18.075Z,15.84
2022-09-13T04:03:19.745Z,15.93
2022-09-13T04:06:21.169Z,15.83
2022-09-13T04:09:23.149Z,15.89
2022-09-13T04:12:24.795Z,15.93
2022-09-13T04:15:27.420Z,15.90
2022-09-13T04:18:29.573Z,15.85
2022-09-13T04:21:31.503Z,16.15
2022-09-13T04:24:33.232Z,16.18
2022-09-13T04:27:35.669Z,16.43
2022-09-13T04:30:40.729Z,16.73
2022-09-13T04:33:43.956Z,16.84
2022-09-13T04:36:46.061Z,16.97
2022-09-13T04:39:47.445Z,16.90
2022-09-13T04:42:48.886Z,16.96
2022-09-13T04:45:50.450Z,17.07
2022-09-13T04:48:52.239Z,16.87
2022-09-13T04:51:53.865Z,16.73
2022-09-13T04:54:55.648Z,16.50
2022-09-13T04:57:57.161Z,16.26
2022-09-13T05:01:06.259Z,16.24
2022-09-13T05:04:09.605Z,16.24
2022-09-13T05:07:11.044Z,16.11
2022-09-13T05:10:15.222Z,16.17
2022-09-13T05:13:20.317Z,16.16
2022-09-13T05:16:23.727Z,15.99
2022-09-13T05:19:25.253Z,15.81
2022-09-13T05:22:26.848Z,15.86
2022-09-13T05:25:28.258Z,15.97
2022-09-13T05:28:31.967Z,16.05
2022-09-13T05:31:36.452Z,16.09
2022-09-13T05:34:37.997Z,16.10
2022-09-13T05:37:39.740Z,16.17
2022-09-13T05:40:41.150Z,16.22
2022-09-13T05:43:42.743Z,16.14
2022-09-13T05:46:48.213Z,16.02
2022-09-13T05:50:09.493Z,15.95
2022-09-13T05:53:11.029Z,15.92
2022-09-13T05:56:23.928Z,16.11
2022-09-13T05:59:25.395Z,16.12
2022-09-13T06:02:26.854Z,16.02
2022-09-13T06:05:31.726Z,16.08
2022-09-13T06:08:34.666Z,15.91
2022-09-13T06:11:36.177Z,15.85
2022-09-13T06:14:37.621Z,15.99
2022-09-13T06:17:39.072Z,15.89
2022-09-13T06:20:40.496Z,15.95
2022-09-13T06:23:42.037Z,16.13
2022-09-13T06:26:43.484Z,16.37
2022-09-13T06:29:44.879Z,16.61
2022-09-13T06:32:46.344Z,16.79
2022-09-13T06:35:47.724Z,16.89
2022-09-13T06:38:49.396Z,16.90
2022-09-13T06:41:50.898Z,16.91
2022-09-13T06:44:55.418Z,16.98
2022-09-13T06:47:56.894Z,17.11
2022-09-13T06:50:59.873Z,17.27
2022-09-13T06:54:03.791Z,17.39
2022-09-13T06:57:05.212Z,17.52
2022-09-13T07:00:07.426Z,17.58
2022-09-13T07:03:08.829Z,17.69
2022-09-13T07:06:20.282Z,17.81
2022-09-13T07:09:23.792Z,18.07
2022-09-13T07:12:25.180Z,18.26
2022-09-13T07:15:26.575Z,18.42
2022-09-13T07:18:28.002Z,18.56
2022-09-13T07:21:29.508Z,18.61
2022-09-13T07:24:31.053Z,18.69
2022-09-13T07:27:32.485Z,18.65
2022-09-13T07:30:33.909Z,18.70
2022-09-13T07:33:35.711Z,18.68
2022-09-13T07:36:38.227Z,18.72
2022-09-13T07:39:39.730Z,18.73
2022-09-13T07:42:41.166Z,18.79
2022-09-13T07:45:42.569Z,18.73
2022-09-13T07:48:46.070Z,19.01
2022-09-13T07:51:51.034Z,19.21
2022-09-13T07:54:52.827Z,19.30
2022-09-13T07:57:54.349Z,19.51
2022-09-13T08:01:01.313Z,19.65
2022-09-13T08:04:05.525Z,19.94
2022-09-13T08:07:06.958Z,20.17
2022-09-13T08:10:08.770Z,20.44
2022-09-13T08:13:10.229Z,20.76
2022-09-13T08:16:12.283Z,20.95
2022-09-13T08:19:17.024Z,21.19
2022-09-13T08:22:18.466Z,21.37
2022-09-13T08:25:19.901Z,21.46
2022-09-13T08:28:27.384Z,21.77
2022-09-13T08:31:29.538Z,22.08
2022-09-13T08:34:31.065Z,21.76
2022-09-13T08:37:34.277Z,21.68
2022-09-13T08:40:45.965Z,22.07
2022-09-13T08:44:01.192Z,22.48
2022-09-13T08:47:32.695Z,22.87
2022-09-13T08:50:36.241Z,23.10
2022-09-13T08:53:45.679Z,23.69
2022-09-13T08:56:59.909Z,23.80
2022-09-13T09:00:23.012Z,23.35
2022-09-13T09:03:41.234Z,23.45
2022-09-13T09:06:43.437Z,23.72
2022-09-13T09:09:53.727Z,24.05
2022-09-13T09:13:23.878Z,23.95
2022-09-13T09:16:35.160Z,24.06
2022-09-13T09:19:41.936Z,24.21
2022-09-13T09:22:45.187Z,24.05
2022-09-13T09:25:47.769Z,23.83
2022-09-13T09:28:54.892Z,24.02
2022-09-13T09:32:14.997Z,23.72
2022-09-13T09:35:28.648Z,24.35
2022-09-13T09:38:35.657Z,24.87
2022-09-13T09:41:38.391Z,24.57
2022-09-13T09:44:40.773Z,25.22
2022-09-13T09:47:47.658Z,25.49
2022-09-13T09:50:54.600Z,25.50
2022-09-13T09:54:02.192Z,25.36
2022-09-13T09:57:04.887Z,25.66
2022-09-13T10:00:12.650Z,25.72
2022-09-13T10:03:19.462Z,26.03
2022-09-13T10:06:25.063Z,26.08
2022-09-13T10:09:27.155Z,24.94
2022-09-13T10:12:33.588Z,24.55
2022-09-13T10:15:35.818Z,24.61
2022-09-13T10:18:44.360Z,25.32
2022-09-13T10:22:00.382Z,25.55
2022-09-13T10:25:25.383Z,25.06
2022-09-13T10:28:27.148Z,26.13
2022-09-13T10:31:36.835Z,26.67
2022-09-13T10:34:38.322Z,26.97
2022-09-13T10:37:44.703Z,27.18
2022-09-13T10:40:48.609Z,27.60
2022-09-13T10:43:57.693Z,27.41
2022-09-13T10:47:06.686Z,27.34
2022-09-13T10:50:23.519Z,27.81
2022-09-13T10:53:38.095Z,28.21
2022-09-13T10:56:39.628Z,28.81
2022-09-13T10:59:41.081Z,28.76
2022-09-13T11:02:56.957Z,29.02
2022-09-13T11:06:10.613Z,28.60
2022-09-13T11:09:49.062Z,27.63
2022-09-13T11:13:22.567Z,28.19
2022-09-13T11:16:33.109Z,29.43
2022-09-13T11:19:57.048Z,30.20
2022-09-13T11:23:20.247Z,30.46
2022-09-13T11:26:39.106Z,30.54
2022-09-13T11:29:43.481Z,30.44
2022-09-13T11:33:04.372Z,30.62
2022-09-13T11:36:34.721Z,29.95
2022-09-13T11:39:41.287Z,29.43
2022-09-13T11:43:20.014Z,28.68
2022-09-13T11:46:24.886Z,28.49
2022-09-13T11:49:41.466Z,27.89
2022-09-13T11:52:57.109Z,27.66
2022-09-13T11:56:08.435Z,27.46
2022-09-13T11:59:35.590Z,27.34
2022-09-13T12:02:43.835Z,27.34
2022-09-13T12:05:53.200Z,27.23
2022-09-13T12:09:01.349Z,26.90
2022-09-13T12:12:29.733Z,26.83
2022-09-13T12:15:43.309Z,26.73
2022-09-13T12:18:49.429Z,26.60
2022-09-13T12:21:54.055Z,26.17
2022-09-13T12:24:59.641Z,26.38
2022-09-13T12:28:27.343Z,26.35
2022-09-13T12:31:31.348Z,26.38
2022-09-13T12:34:55.022Z,26.42
2022-09-13T12:38:18.130Z,26.46
2022-09-13T12:42:01.752Z,26.52
2022-09-13T12:45:29.472Z,26.42
2022-09-13T12:49:13.215Z,26.60
2022-09-13T12:52:30.533Z,26.65
2022-09-13T12:55:53.851Z,26.79
2022-09-13T12:59:25.309Z,26.80
2022-09-13T13:02:37.572Z,26.66
2022-09-13T13:05:46.368Z,26.77
2022-09-13T13:08:52.550Z,26.90
2022-09-13T13:11:55.036Z,26.92
2022-09-13T13:14:56.901Z,27.04
2022-09-13T13:18:27.469Z,27.05
2022-09-13T13:21:31.294Z,27.20
2022-09-13T13:24:32.947Z,27.21
2022-09-13T13:27:38.239Z,27.36
2022-09-13T13:30:51.257Z,27.38
2022-09-13T13:33:55.816Z,27.26
2022-09-13T13:37:23.493Z,27.34
2022-09-13T13:40:26.783Z,27.45
2022-09-13T13:43:28.155Z,27.49
2022-09-13T13:46:32.233Z,27.60
2022-09-13T13:49:38.413Z,27.74
2022-09-13T13:52:52.275Z,27.73
2022-09-13T13:56:20.023Z,27.79
2022-09-13T13:59:25.892Z,27.94
2022-09-13T14:03:00.495Z,27.90
2022-09-13T14:06:08.083Z,28.00
2022-09-13T14:09:46.980Z,27.94
2022-09-13T14:13:16.868Z,28.17
2022-09-13T14:16:49.423Z,28.14
2022-09-13T14:19:55.474Z,28.15
2022-09-13T14:23:18.683Z,28.03
2022-09-13T14:26:21.214Z,28.02
2022-09-13T14:29:25.794Z,27.93
2022-09-13T14:32:35.851Z,27.65
2022-09-13T14:35:41.242Z,27.46
2022-09-13T14:38:57.942Z,27.61
2022-09-13T14:42:13.498Z,27.76
2022-09-13T14:45:18.717Z,27.81
2022-09-13T14:48:30.738Z,27.86
2022-09-13T14:51:40.389Z,27.68
2022-09-13T14:54:48.405Z,27.51
2022-09-13T14:57:54.497Z,27.45
2022-09-13T15:01:00.733Z,27.39
2022-09-13T15:04:05.584Z,27.44
2022-09-13T15:07:17.653Z,27.40
2022-09-13T15:10:28.561Z,27.34
2022-09-13T15:13:30.520Z,27.37
2022-09-13T15:16:32.259Z,27.39
2022-09-13T15:19:39.827Z,27.44
2022-09-13T15:22:42.578Z,27.33
2022-09-13T15:25:53.554Z,27.13
2022-09-13T15:28:57.435Z,27.20
2022-09-13T15:31:59.310Z,27.26
2022-09-13T15:35:02.405Z,27.13
2022-09-13T15:38:24.363Z,27.04
2022-09-13T15:41:31.426Z,27.06
2022-09-13T15:44:32.928Z,27.01
2022-09-13T15:47:34.263Z,27.16
2022-09-13T15:50:36.975Z,27.20
2022-09-13T15:53:40.905Z,27.25
2022-09-13T15:56:47.293Z,27.44
2022-09-13T15:59:49.583Z,27.37
2022-09-13T16:02:51.726Z,27.42
2022-09-13T16:05:53.724Z,27.18
2022-09-13T16:08:55.197Z,27.20
2022-09-13T16:11:59.450Z,26.90
2022-09-13T16:15:01.206Z,26.95
2022-09-13T16:18:02.656Z,26.96
2022-09-13T16:21:04.296Z,26.69
2022-09-13T16:24:05.693Z,26.65
2022-09-13T16:27:07.494Z,26.62
2022-09-13T16:30:13.635Z,26.50
2022-09-13T16:33:15.263Z,26.43
2022-09-13T16:36:17.060Z,26.37
2022-09-13T16:39:19.077Z,26.36
2022-09-13T16:42:20.628Z,26.29
2022-09-13T16:45:22.238Z,26.17
2022-09-13T16:48:23.656Z,26.15
2022-09-13T16:51:25.713Z,26.07
2022-09-13T16:54:30.148Z,26.10
2022-09-13T16:57:32.340Z,26.03
2022-09-13T17:00:34.004Z,25.97
2022-09-13T17:03:36.274Z,25.93
2022-09-13T17:06:37.806Z,25.86
2022-09-13T17:09:40.531Z,25.78
2022-09-13T17:12:42.027Z,25.61
2022-09-13T17:15:43.508Z,25.66
2022-09-13T17:18:45.033Z,25.55
2022-09-13T17:21:46.646Z,25.52
2022-09-13T17:24:48.310Z,25.47
2022-09-13T17:27:50.259Z,25.47
2022-09-13T17:30:51.990Z,25.48
2022-09-13T17:33:53.496Z,25.33
2022-09-13T17:36:55.069Z,25.32
2022-09-13T17:39:56.692Z,25.29
2022-09-13T17:42:58.188Z,25.21
2022-09-13T17:46:07.401Z,24.90
2022-09-13T17:49:09.205Z,25.01
2022-09-13T17:52:11.213Z,25.00
2022-09-13T17:55:12.904Z,25.00
2022-09-13T17:58:14.725Z,24.94
2022-09-13T18:01:16.610Z,24.92
2022-09-13T18:04:21.018Z,24.84
2022-09-13T18:07:22.453Z,24.63
2022-09-13T18:10:45.673Z,24.61
2022-09-13T18:13:45.683Z,24.70
2022-09-13T18:16:51.839Z,24.63
2022-09-13T18:19:53.229Z,24.52
2022-09-13T18:22:54.627Z,24.35
2022-09-13T18:26:02.889Z,24.18
2022-09-13T18:29:10.181Z,24.06
2022-09-13T18:32:11.581Z,23.99
2022-09-13T18:35:13.101Z,23.90
2022-09-13T18:38:14.492Z,23.94
2022-09-13T18:41:21.731Z,23.95
2022-09-13T18:44:23.208Z,24.02
2022-09-13T18:47:24.672Z,24.06
2022-09-13T18:50:26.427Z,24.09
2022-09-13T18:53:34.367Z,24.08
2022-09-13T18:56:36.514Z,23.84
2022-09-13T18:59:37.908Z,23.73
2022-09-13T19:02:56.608Z,23.66
2022-09-13T19:06:19.578Z,23.53
2022-09-13T19:09:22.859Z,23.44
2022-09-13T19:12:24.279Z,23.51
2022-09-13T19:15:25.819Z,23.56
2022-09-13T19:18:28.229Z,23.67
2022-09-13T19:21:31.703Z,23.59
2022-09-13T19:24:33.839Z,23.52
2022-09-13T19:27:35.245Z,23.37
2022-09-13T19:30:36.978Z,23.31
2022-09-13T19:33:39.543Z,23.47
2022-09-13T19:36:42.926Z,23.35
2022-09-13T19:39:45.545Z,23.26
2022-09-13T19:42:47.080Z,23.33
2022-09-13T19:45:59.654Z,23.18
2022-09-13T19:49:02.280Z,23.11
2022-09-13T19:52:03.895Z,23.01
2022-09-13T19:55:05.753Z,22.87
2022-09-13T19:58:07.178Z,22.98
2022-09-13T20:01:17.585Z,22.97
2022-09-13T20:04:21.156Z,22.88
2022-09-13T20:07:22.705Z,22.88
2022-09-13T20:10:24.253Z,22.88
2022-09-13T20:13:25.681Z,23.02
2022-09-13T20:16:29.806Z,22.86
2022-09-13T20:19:40.967Z,22.51
2022-09-13T20:22:43.206Z,22.67
2022-09-13T20:25:45.358Z,22.72
2022-09-13T20:28:50.295Z,22.82
2022-09-13T20:31:54.185Z,22.75
2022-09-13T20:34:56.178Z,22.67
2022-09-13T20:37:58.900Z,22.58
2022-09-13T20:41:05.805Z,22.65
2022-09-13T20:44:07.520Z,22.67
2022-09-13T20:47:09.222Z,22.57
2022-09-13T20:50:10.914Z,22.77
2022-09-13T20:53:14.067Z,22.85
2022-09-13T20:56:18.058Z,22.94
2022-09-13T20:59:21.066Z,22.96
2022-09-13T21:02:22.527Z,22.80
2022-09-13T21:05:24.084Z,22.84
2022-09-13T21:08:43.841Z,22.81
2022-09-13T21:11:45.471Z,22.64
2022-09-13T21:14:47.040Z,22.49
2022-09-13T21:17:48.574Z,22.46
2022-09-13T21:20:57.723Z,22.46
2022-09-13T21:24:08.533Z,22.58
2022-09-13T21:27:09.928Z,22.73
2022-09-13T21:30:11.525Z,22.74
2022-09-13T21:33:12.949Z,22.63
2022-09-13T21:36:14.959Z,22.35
2022-09-13T21:39:17.594Z,22.00
2022-09-13T21:42:19.009Z,22.06
2022-09-13T21:45:20.464Z,22.23
2022-09-13T21:48:22.303Z,22.36
2022-09-13T21:51:29.163Z,22.35
2022-09-13T21:54:30.587Z,22.37
2022-09-13T21:57:31.974Z,22.53
2022-09-13T22:00:33.589Z,22.55
2022-09-13T22:03:36.925Z,22.45
2022-09-13T22:06:38.555Z,22.17
2022-09-13T22:09:39.958Z,22.08
2022-09-13T22:12:41.421Z,22.14
2022-09-13T22:15:42.886Z,22.21
2022-09-13T22:18:45.047Z,22.28
2022-09-13T22:21:50.643Z,22.25
2022-09-13T22:24:52.034Z,22.32
2022-09-13T22:30:55.271Z,22.41
2022-09-13T22:33:59.243Z,22.39
2022-09-13T22:37:00.656Z,22.36
2022-09-13T22:40:04.390Z,22.30
2022-09-13T22:43:05.887Z,22.34
2022-09-13T22:46:13.018Z,22.36
2022-09-13T22:49:19.590Z,22.38
2022-09-13T22:52:21.115Z,22.43
2022-09-13T22:55:23.171Z,22.46
2022-09-13T22:58:24.540Z,22.44
2022-09-13T23:01:27.097Z,22.42
2022-09-13T23:04:28.506Z,22.51
2022-09-13T23:07:29.892Z,22.55
2022-09-13T23:10:31.816Z,22.60
2022-09-13T23:13:33.226Z,22.53
2022-09-13T23:16:37.650Z,22.47
2022-09-13T23:19:39.355Z,22.45
2022-09-13T23:22:40.809Z,22.54
2022-09-13T23:25:42.213Z,22.52
2022-09-13T23:28:45.381Z,22.40
2022-09-13T23:31:48.044Z,22.32
2022-09-13T23:34:49.581Z,22.22
2022-09-13T23:37:51.021Z,22.10
2022-09-13T23:40:52.442Z,22.22
2022-09-13T23:43:54.134Z,22.22
2022-09-13T23:46:55.937Z,22.26
2022-09-13T23:49:57.381Z,22.39
2022-09-13T23:52:58.801Z,22.46
2022-09-13T23:56:00.539Z,22.32
2022-09-13T23:59:03.464Z,22.24
